Commit Graph

  • cdd73716d2 Asthetic improvements. Tom Payne 2008-10-06 10:47:28 +0200
  • 2d9365ab49 Re-add missing glide style. Tom Payne 2008-10-06 10:36:22 +0200
  • e2501b3ac9 Correct time marks. Tom Payne 2008-10-06 10:34:34 +0200
  • aac8911e33 Add time marks folder (untested). Tom Payne 2008-10-06 00:00:14 +0200
  • 0342fcbfb0 Move datetime_floor into util. Tom Payne 2008-10-05 23:16:52 +0200
  • 3b5eb4664d Further tuning of analysis algorithm. Tom Payne 2008-10-05 23:12:04 +0200
  • 9f8e009af9 Add peak values. Tom Payne 2008-10-05 22:49:37 +0200
  • 19850010a6 Refactor analysis. Tom Payne 2008-10-05 22:39:16 +0200
  • e8ea73c564 Fix typo. Tom Payne 2008-10-05 22:33:02 +0200
  • 20e30dcff0 Avoid division by zero in glide angle calculations. Tom Payne 2008-10-05 22:23:24 +0200
  • 20b58aad98 Remove unused class. Tom Payne 2008-10-05 22:15:07 +0200
  • 42ac8362ec Correct runs and runs_where. Tom Payne 2008-10-05 22:10:16 +0200
  • bb6daec314 Merge branch 'master' of nano.local:src/igc2kmz Tom Payne 2008-10-05 21:04:11 +0200
  • 70f34655db New analysis functions. Tom Payne 2008-10-05 21:03:30 +0200
  • aa54558761 Update. Tom Payne 2008-10-05 19:32:11 +0200
  • 5214b47c78 Ignore small thermals. Tom Payne 2008-10-05 19:31:16 +0200
  • d81b7273fe Clean up scale. Tom Payne 2008-10-05 19:29:42 +0200
  • 0df3fb9d3c Update pygooglechart to 0.2.2. Tom Payne 2008-10-05 19:00:46 +0200
  • 20b08eb2f9 Clean-ups. Tom Payne 2008-10-05 18:49:31 +0200
  • 6845301b6d Promote altitude graph to top level. Tom Payne 2008-10-05 18:43:03 +0200
  • a175a9689f Clean up analysis. Tom Payne 2008-10-05 18:38:34 +0200
  • 8d94167ddd Fix find_first_ge. Tom Payne 2008-10-03 21:32:33 +0200
  • 98b815043d Correct unit tests. Tom Payne 2008-10-03 21:05:41 +0200
  • 5f4b482930 Update. Tom Payne 2008-10-03 20:53:06 +0200
  • ff4ef91299 Add license to all source files. Tom Payne 2008-10-03 20:50:15 +0200
  • 919e71bd2d Be more tolerant in B records. Tom Payne 2008-09-29 23:19:05 +0200
  • e9f0c8dbf4 Ignore errors. Tom Payne 2008-09-29 23:18:40 +0200
  • d6154d8a08 Update. Tom Payne 2008-09-28 21:41:13 +0200
  • 4a748d16e9 Remove test IGC files. Tom Payne 2008-09-26 19:45:05 +0200
  • 5eefedb5b4 Update. Tom Payne 2008-09-26 19:36:45 +0200
  • 500dd4b6eb Clean-ups. Tom Payne 2008-09-26 19:35:47 +0200
  • a49b1adc3b Reorder colored tracks. Tom Payne 2008-09-26 19:22:05 +0200
  • 6c035f3c6b Refactor runs to return slices. Tom Payne 2008-09-26 19:21:26 +0200
  • 3b5cd3ede7 Correct drift direction. Tom Payne 2008-09-26 18:48:52 +0200
  • 69d551bd7d Don't include extra fields that are always zero. Tom Payne 2008-09-26 18:39:08 +0200
  • 0193a903d8 Clean-up for python 2.5. Tom Payne 2008-09-26 18:35:40 +0200
  • fa500763b2 Refactor scales to be an OpenStruct. Tom Payne 2008-09-26 18:31:44 +0200
  • 55c045a8ca Clean-ups. Tom Payne 2008-09-26 18:27:02 +0200
  • c19b69033b Clean-ups for python 2.5. Tom Payne 2008-09-26 18:26:39 +0200
  • 859c2cce6c Clean-ups. Tom Payne 2008-09-26 18:26:13 +0200
  • 3438fa1bc1 Update. Tom Payne 2008-09-26 10:37:43 +0200
  • 2df8d91b93 Update. Tom Payne 2008-09-26 00:15:48 +0200
  • fb21783138 Color by air speed. Tom Payne 2008-09-26 00:04:04 +0200
  • 88c41c0caa Update. Tom Payne 2008-09-25 23:44:30 +0200
  • 155a662b34 Update for new module structure. Tom Payne 2008-09-25 23:32:09 +0200
  • 45f557601a Parameterise icon scaling. Tom Payne 2008-09-22 21:05:49 +0200
  • 1a8e6aa3b3 Update. Tom Payne 2008-09-22 21:00:33 +0200
  • c149a6e056 Add drift direction. Tom Payne 2008-09-22 20:56:57 +0200
  • df8988183d Fix initial_bearing_to and add rad_to_compass. Tom Payne 2008-09-22 20:56:26 +0200
  • 0943251b6c Update. Tom Payne 2008-09-22 20:34:49 +0200
  • 7bfb9456c1 Use user-supplied metadata in snippet. Tom Payne 2008-09-22 20:31:40 +0200
  • d8519847ba Add extra checks during IGC parse (broken). Tom Payne 2008-09-22 18:06:46 +0200
  • 23e59f3a1e Clean up I record handling. Tom Payne 2008-09-22 17:20:06 +0200
  • b28f056dbb Update for new IGC constructor. Tom Payne 2008-09-22 16:40:02 +0200
  • 5308c51b41 Ignore n/a fields. Tom Payne 2008-09-22 12:28:33 +0200
  • e19e9a48f9 Don't display altitude marks by default. Tom Payne 2008-09-22 12:28:08 +0200
  • f7a75f750b Open up top level KML document. Tom Payne 2008-09-22 12:24:58 +0200
  • 1c57389153 Store coordinates in radians. Tom Payne 2008-09-21 23:25:07 +0200
  • 6f4ada503d Store coordinates in radians. Tom Payne 2008-09-21 23:23:40 +0200
  • aed827b7c7 Store coordinates in radians. Tom Payne 2008-09-21 23:22:23 +0200
  • c4e6c2397a Add Coord.bearing_to. Tom Payne 2008-09-21 23:01:12 +0200
  • 7e54d88bfd Update. Tom Payne 2008-09-21 22:55:57 +0200
  • dbaa8d497a Update. Tom Payne 2008-09-21 22:53:48 +0200
  • 90d10c59ff Pass file objects rather than filenames to IGC(). Tom Payne 2008-09-21 22:49:00 +0200
  • 83de9d9a2a Warn on IGC parse errors. Tom Payne 2008-09-21 22:44:32 +0200
  • 5bbbcdcdcc Clean up imports. Tom Payne 2008-09-21 22:31:37 +0200
  • 76cc7b93d6 More verbose variable names. Tom Payne 2008-09-21 22:30:30 +0200
  • c8551f906c Refactor times. Tom Payne 2008-09-21 22:26:19 +0200
  • f8dbcc2114 Refactor times. Tom Payne 2008-09-21 22:25:29 +0200
  • 04e8f6b36f Massive refactoring. Tom Payne 2008-09-21 18:35:58 +0200
  • 53aa350e29 Rename Bounds.merge to Bounds.update. Tom Payne 2008-09-19 19:00:41 +0200
  • 4d55321f1f Update. Tom Payne 2008-09-19 18:08:47 +0200
  • 9d5b8f9450 Improved thermal detection. Tom Payne 2008-09-19 14:19:07 +0200
  • 9ad02908b4 Make labels smaller. Tom Payne 2008-09-18 20:14:43 +0200
  • 40619ce3c3 Update. Tom Payne 2008-09-18 20:10:43 +0200
  • 877994a2d0 Add thermal analysis. Tom Payne 2008-09-18 20:09:44 +0200
  • d6235c324d Add Chart.get_html_img. Tom Payne 2008-09-18 20:01:42 +0200
  • 18d85e3beb Add MultiGeometry. Tom Payne 2008-09-18 17:37:32 +0200
  • 835eff4eeb Fix Coord.halfway_to. Tom Payne 2008-09-18 17:37:15 +0200
  • e62a9cfbf5 Update. Tom Payne 2008-09-18 16:37:09 +0200
  • a6370013a9 Remove dependency on numpy. Tom Payne 2008-09-18 16:34:25 +0200
  • e06eaeee87 Clean up imports. Tom Payne 2008-09-18 16:31:26 +0200
  • 32f9215576 Clean up Bounds. Tom Payne 2008-09-18 16:23:05 +0200
  • 77a483d870 Don't import datetime. Tom Payne 2008-09-18 16:10:22 +0200
  • 13cd768de0 Correct documentation and greyscale. Tom Payne 2008-09-18 16:05:48 +0200
  • 5d9205f445 Refactor into single module. Tom Payne 2008-09-18 16:03:06 +0200
  • 488a339a32 Use sequences rather than iterators in bounds. Tom Payne 2008-09-18 11:37:17 +0200
  • d101b05174 Add thermal detection. Tom Payne 2008-09-18 11:35:16 +0200
  • efeeb4c43f Snapshot. Tom Payne 2008-09-17 22:56:34 +0200
  • e525891a76 Refactor analysis. Tom Payne 2008-09-17 20:04:37 +0200
  • 07eec2a3d9 Add Coord.interpolate. Tom Payne 2008-09-17 18:17:48 +0200
  • 472fa9a9c8 Don't use super. Tom Payne 2008-09-17 17:26:10 +0200
  • 047a479e69 Use averaged elevation for color. Tom Payne 2008-09-16 22:09:20 +0200
  • b8b468c820 Make altitude marks visible by default. Tom Payne 2008-09-16 22:05:52 +0200
  • 38358b26aa Add legends for colored tracks. Tom Payne 2008-09-16 21:55:38 +0200
  • d940d4ca30 Use RGBA tuples for colors. Tom Payne 2008-09-16 21:10:59 +0200
  • 6d06cb0840 Limit number of points in Google charts. Tom Payne 2008-09-16 20:36:50 +0200
  • 8420777305 Correct zip file permissions. Tom Payne 2008-09-16 19:34:09 +0200
  • 0e8ba6f5c0 Clean up altitude marks. Tom Payne 2008-09-16 19:18:02 +0200
  • 0d2d76e2d4 Fix bug in salient. Tom Payne 2008-09-16 19:08:48 +0200